createdAt,value
2023-10-15T00:00:20.507Z,102052.69
2023-10-15T00:02:49.372Z,102060.09
2023-10-15T00:05:20.204Z,102055.06
2023-10-15T00:07:50.833Z,102057.63
2023-10-15T00:10:20.124Z,102061.06
2023-10-15T00:12:48.808Z,102056.59
2023-10-15T00:15:19.861Z,102045.22
2023-10-15T00:17:52.122Z,102018.72
2023-10-15T00:20:24.365Z,102010.69
2023-10-15T00:22:52.059Z,102007.94
2023-10-15T00:25:21.002Z,102007.13
2023-10-15T00:27:57.827Z,102006.34
2023-10-15T00:30:33.316Z,102002.84
2023-10-15T00:33:04.363Z,101993.16
2023-10-15T00:35:37.203Z,102002.00
2023-10-15T00:38:17.999Z,102003.28
2023-10-15T00:40:47.073Z,101987.63
2023-10-15T00:43:19.718Z,101989.34
2023-10-15T00:45:47.848Z,101981.53
2023-10-15T00:48:35.449Z,101982.38
2023-10-15T00:51:05.911Z,101980.00
2023-10-15T00:53:33.266Z,101986.31
2023-10-15T00:56:11.576Z,101988.94
2023-10-15T00:58:55.319Z,101983.53
2023-10-15T01:01:34.498Z,101984.50
2023-10-15T01:04:02.025Z,101990.81
2023-10-15T01:06:31.468Z,101997.16
2023-10-15T01:09:10.214Z,101999.84
2023-10-15T01:11:52.524Z,102012.28
2023-10-15T01:14:34.403Z,102012.28
2023-10-15T01:17:02.049Z,102017.59
2023-10-15T01:19:34.916Z,102006.81
2023-10-15T01:22:04.371Z,102019.13
2023-10-15T01:24:35.517Z,102016.50
2023-10-15T01:27:12.898Z,102011.31
2023-10-15T01:29:45.437Z,102008.75
2023-10-15T01:32:32.326Z,101998.13
2023-10-15T01:35:00.787Z,102002.53
2023-10-15T01:37:27.935Z,101993.69
2023-10-15T01:40:22.510Z,101979.53
2023-10-15T01:42:55.031Z,101972.44
2023-10-15T01:45:32.670Z,101962.81
2023-10-15T01:48:14.754Z,101954.88
2023-10-15T01:50:53.194Z,101954.09
2023-10-15T01:53:24.861Z,101954.22
2023-10-15T01:56:00.313Z,101957.63
2023-10-15T01:58:36.800Z,101949.78
2023-10-15T02:01:32.902Z,101944.47
2023-10-15T02:03:59.823Z,101945.44
2023-10-15T02:06:26.439Z,101946.34
2023-10-15T02:08:53.041Z,101937.66
2023-10-15T02:11:22.735Z,101947.25
2023-10-15T02:13:50.471Z,101952.69
2023-10-15T02:16:30.631Z,101956.28
2023-10-15T02:18:59.650Z,101957.25
2023-10-15T02:21:26.344Z,101946.75
2023-10-15T02:23:53.213Z,101942.34
2023-10-15T02:26:24.701Z,101942.34
2023-10-15T02:28:57.224Z,101938.91
2023-10-15T02:31:24.113Z,101956.72
2023-10-15T02:33:51.913Z,101960.44
2023-10-15T02:36:18.791Z,101960.56
2023-10-15T02:38:54.296Z,101951.91
2023-10-15T02:41:22.183Z,101946.66
2023-10-15T02:43:57.618Z,101940.63
2023-10-15T02:46:26.266Z,101941.53
2023-10-15T02:48:54.603Z,101947.69
2023-10-15T02:51:24.582Z,101935.47
2023-10-15T02:53:53.903Z,101944.25
2023-10-15T02:56:22.076Z,101932.91
2023-10-15T02:58:49.922Z,101939.00
2023-10-15T03:01:20.476Z,101942.72
2023-10-15T03:03:52.076Z,101948.16
2023-10-15T03:06:20.198Z,101956.03
2023-10-15T03:08:50.327Z,101954.31
2023-10-15T03:11:20.811Z,101969.28
2023-10-15T03:13:56.905Z,101978.09
2023-10-15T03:16:28.163Z,101991.38
2023-10-15T03:18:57.616Z,102019.53
2023-10-15T03:21:27.539Z,102022.19
2023-10-15T03:23:58.384Z,102037.75
2023-10-15T03:26:25.359Z,102051.63
2023-10-15T03:28:59.739Z,102083.63
2023-10-15T03:31:29.421Z,102076.09
2023-10-15T03:34:02.836Z,102083.06
2023-10-15T03:36:35.406Z,102072.00
2023-10-15T03:39:11.469Z,102061.88
2023-10-15T03:41:41.269Z,102040.69
2023-10-15T03:44:11.236Z,102035.19
2023-10-15T03:46:38.920Z,102018.41
2023-10-15T03:49:12.171Z,102018.09
2023-10-15T03:51:49.806Z,102012.56
2023-10-15T03:54:16.213Z,102007.31
2023-10-15T03:56:44.722Z,102010.94
2023-10-15T03:59:12.811Z,102004.91
2023-10-15T04:01:48.413Z,102009.22
2023-10-15T04:04:17.610Z,102007.69
2023-10-15T04:06:54.968Z,102020.03
2023-10-15T04:09:25.903Z,102038.50
2023-10-15T04:11:52.423Z,102051.69
2023-10-15T04:14:24.196Z,102050.91
2023-10-15T04:16:51.927Z,102056.91
2023-10-15T04:19:21.163Z,102040.09
2023-10-15T04:21:48.024Z,102032.16
2023-10-15T04:24:15.627Z,102026.31
2023-10-15T04:26:43.642Z,102029.78
2023-10-15T04:29:19.716Z,102032.31
2023-10-15T04:31:53.107Z,102024.44
2023-10-15T04:34:19.725Z,102020.03
2023-10-15T04:36:46.751Z,102020.03
2023-10-15T04:39:14.345Z,102026.03
2023-10-15T04:41:44.321Z,102005.06
2023-10-15T04:44:20.993Z,102012.75
2023-10-15T04:46:47.732Z,102012.88
2023-10-15T04:49:18.675Z,102020.78
2023-10-15T04:51:45.920Z,102020.78
2023-10-15T04:54:13.378Z,102020.69
2023-10-15T04:56:42.951Z,102018.00
2023-10-15T04:59:09.450Z,102029.63
2023-10-15T05:01:35.997Z,102027.13
2023-10-15T05:04:05.331Z,102022.78
2023-10-15T05:06:31.714Z,102023.53
2023-10-15T05:08:58.903Z,102015.69
2023-10-15T05:11:25.356Z,102013.97
2023-10-15T05:13:52.429Z,102013.34
2023-10-15T05:16:19.986Z,102024.09
2023-10-15T05:18:48.449Z,102032.06
2023-10-15T05:21:14.933Z,102044.25
2023-10-15T05:23:41.573Z,102050.50
2023-10-15T05:26:08.132Z,102056.69
2023-10-15T05:28:34.811Z,102062.88
2023-10-15T05:31:02.095Z,102063.13
2023-10-15T05:33:29.324Z,102043.13
2023-10-15T05:35:58.268Z,102031.53
2023-10-15T05:38:27.097Z,102027.91
2023-10-15T05:40:58.441Z,102020.72
2023-10-15T05:43:25.080Z,102023.13
2023-10-15T05:45:51.729Z,102013.41
2023-10-15T05:48:18.934Z,102016.03
2023-10-15T05:50:50.169Z,102016.22
2023-10-15T05:53:17.382Z,102016.41
2023-10-15T05:55:44.183Z,102027.81
2023-10-15T05:58:10.688Z,102021.69
2023-10-15T06:00:40.842Z,102027.91
2023-10-15T06:03:09.167Z,102054.84
2023-10-15T06:05:36.248Z,102056.69
2023-10-15T06:08:03.537Z,102066.28
2023-10-15T06:10:30.894Z,102065.63
2023-10-15T06:13:00.093Z,102069.13
2023-10-15T06:15:27.220Z,102077.16
2023-10-15T06:17:53.765Z,102089.31
2023-10-15T06:20:21.029Z,102103.41
2023-10-15T06:22:48.926Z,102123.69
2023-10-15T06:25:20.191Z,102114.84
2023-10-15T06:27:47.068Z,102093.59
2023-10-15T06:30:19.341Z,102095.28
2023-10-15T06:32:50.675Z,102099.63
2023-10-15T06:35:21.453Z,102110.97
2023-10-15T06:37:58.534Z,102123.28
2023-10-15T06:40:25.943Z,102120.94
2023-10-15T06:42:54.395Z,102112.94
2023-10-15T06:45:21.970Z,102120.69
2023-10-15T06:47:53.191Z,102114.56
2023-10-15T06:50:24.112Z,102120.56
2023-10-15T06:52:52.100Z,102131.03
2023-10-15T06:55:21.428Z,102126.69
2023-10-15T06:57:48.395Z,102124.78
2023-10-15T07:00:22.615Z,102117.66
2023-10-15T07:02:54.012Z,102124.69
2023-10-15T07:05:27.401Z,102128.13
2023-10-15T07:07:54.703Z,102130.81
2023-10-15T07:10:22.569Z,102150.78
2023-10-15T07:12:51.681Z,102164.09
2023-10-15T07:15:19.249Z,102189.50
2023-10-15T07:17:46.347Z,102193.09
2023-10-15T07:20:18.048Z,102190.47
2023-10-15T07:22:48.100Z,102187.72
2023-10-15T07:25:16.227Z,102196.41
2023-10-15T07:27:45.881Z,102187.72
2023-10-15T07:30:13.824Z,102196.53
2023-10-15T07:32:44.889Z,102199.06
2023-10-15T07:35:13.075Z,102204.31
2023-10-15T07:37:45.383Z,102197.34
2023-10-15T07:40:22.789Z,102193.72
2023-10-15T07:42:51.499Z,102193.63
2023-10-15T07:45:19.886Z,102198.88
2023-10-15T07:47:47.011Z,102210.50
2023-10-15T07:50:19.907Z,102214.00
2023-10-15T07:52:48.126Z,102212.00
2023-10-15T07:55:14.896Z,102213.75
2023-10-15T07:57:41.521Z,102223.28
2023-10-15T08:00:14.141Z,102227.69
2023-10-15T08:02:47.504Z,102240.16
2023-10-15T08:05:14.550Z,102237.63
2023-10-15T08:07:44.826Z,102232.25
2023-10-15T08:10:12.162Z,102218.13
2023-10-15T08:12:38.708Z,102204.03
2023-10-15T08:15:08.039Z,102204.03
2023-10-15T08:17:35.278Z,102213.47
2023-10-15T08:20:01.921Z,102210.72
2023-10-15T08:22:29.268Z,102217.69
2023-10-15T08:24:56.853Z,102222.81
2023-10-15T08:27:23.354Z,102218.53
2023-10-15T08:29:49.805Z,102230.66
2023-10-15T08:32:19.267Z,102228.94
2023-10-15T08:34:46.220Z,102233.31
2023-10-15T08:37:12.975Z,102232.41
2023-10-15T08:39:40.818Z,102241.81
2023-10-15T08:42:12.329Z,102240.81
2023-10-15T08:44:41.042Z,102245.94
2023-10-15T08:47:11.925Z,102246.66
2023-10-15T08:49:46.801Z,102244.94
2023-10-15T08:52:13.831Z,102251.00
2023-10-15T08:54:42.104Z,102263.22
2023-10-15T08:57:09.668Z,102271.09
2023-10-15T08:59:39.549Z,102277.16
2023-10-15T09:02:09.673Z,102290.09
2023-10-15T09:04:37.074Z,102294.34
2023-10-15T09:07:04.173Z,102306.63
2023-10-15T09:09:33.521Z,102299.56
2023-10-15T09:12:01.435Z,102310.06
2023-10-15T09:14:38.047Z,102300.09
2023-10-15T09:17:04.553Z,102300.19
2023-10-15T09:19:33.104Z,102301.19
2023-10-15T09:21:59.606Z,102306.38
2023-10-15T09:24:28.352Z,102312.28
2023-10-15T09:26:54.770Z,102309.56
2023-10-15T09:29:21.474Z,102326.03
2023-10-15T09:31:50.210Z,102333.69
2023-10-15T09:34:17.389Z,102337.22
2023-10-15T09:36:43.850Z,102342.19
2023-10-15T09:39:14.036Z,102340.41
2023-10-15T09:41:44.099Z,102337.81
2023-10-15T09:44:15.849Z,102344.66
2023-10-15T09:46:45.477Z,102338.50
2023-10-15T09:49:13.851Z,102327.06
2023-10-15T09:51:43.187Z,102327.84
2023-10-15T09:54:12.627Z,102326.00
2023-10-15T09:56:43.014Z,102332.97
2023-10-15T09:59:09.690Z,102333.78
2023-10-15T10:01:41.341Z,102342.38
2023-10-15T10:04:26.771Z,102344.13
2023-10-15T10:07:11.862Z,102345.91
2023-10-15T10:09:52.606Z,102339.75
2023-10-15T10:12:46.972Z,102356.19
2023-10-15T10:15:25.153Z,102355.22
2023-10-15T10:17:52.264Z,102358.66
2023-10-15T10:20:21.101Z,102362.09
2023-10-15T10:23:32.218Z,102367.25
2023-10-15T10:26:14.840Z,102362.81
2023-10-15T10:28:42.205Z,102370.69
2023-10-15T10:31:09.242Z,102374.22
2023-10-15T10:33:45.299Z,102374.94
2023-10-15T10:36:16.751Z,102363.44
2023-10-15T10:38:46.538Z,102380.72
2023-10-15T10:41:25.991Z,102377.91
2023-10-15T10:43:58.749Z,102378.81
2023-10-15T10:46:44.631Z,102383.16
2023-10-15T10:49:16.971Z,102386.72
2023-10-15T10:52:03.461Z,102395.63
2023-10-15T10:54:29.979Z,102397.31
2023-10-15T10:56:57.872Z,102412.31
2023-10-15T10:59:24.612Z,102395.97
2023-10-15T11:01:51.205Z,102402.16
2023-10-15T11:04:17.626Z,102404.06
2023-10-15T11:06:49.681Z,102408.38
2023-10-15T11:09:16.789Z,102409.31
2023-10-15T11:11:45.328Z,102407.75
2023-10-15T11:14:14.054Z,102409.53
2023-10-15T11:16:43.788Z,102418.97
2023-10-15T11:19:21.172Z,102407.69
2023-10-15T11:21:48.322Z,102405.06
2023-10-15T11:24:17.504Z,102407.75
2023-10-15T11:26:45.959Z,102397.16
2023-10-15T11:29:17.427Z,102399.50
2023-10-15T11:31:45.831Z,102402.94
2023-10-15T11:34:13.586Z,102403.72
2023-10-15T11:36:44.329Z,102401.81
2023-10-15T11:39:19.296Z,102403.31
2023-10-15T11:41:53.143Z,102398.06
2023-10-15T11:44:27.695Z,102407.56
2023-10-15T11:46:56.101Z,102407.53
2023-10-15T11:49:25.024Z,102405.72
2023-10-15T11:51:56.427Z,102404.75
2023-10-15T11:54:29.122Z,102406.53
2023-10-15T11:56:56.143Z,102399.44
2023-10-15T11:59:26.182Z,102401.13
2023-10-15T12:01:53.180Z,102401.88
2023-10-15T12:04:20.643Z,102394.84
2023-10-15T12:06:50.945Z,102404.28
2023-10-15T12:09:26.132Z,102401.53
2023-10-15T12:11:53.509Z,102396.22
2023-10-15T12:14:20.218Z,102395.19
2023-10-15T12:16:46.948Z,102394.25
2023-10-15T12:19:13.522Z,102408.09
2023-10-15T12:21:42.801Z,102401.94
2023-10-15T12:24:17.106Z,102401.78
2023-10-15T12:26:44.781Z,102405.19
2023-10-15T12:29:27.795Z,102408.53
2023-10-15T12:31:59.824Z,102414.56
2023-10-15T12:34:26.396Z,102406.84
2023-10-15T12:36:54.026Z,102410.22
2023-10-15T12:39:28.254Z,102412.75
2023-10-15T12:41:55.498Z,102415.13
2023-10-15T12:44:23.964Z,102429.09
2023-10-15T12:46:52.230Z,102434.09
2023-10-15T12:49:20.408Z,102427.16
2023-10-15T12:51:47.129Z,102437.00
2023-10-15T12:54:14.632Z,102428.38
2023-10-15T12:56:41.353Z,102424.78
2023-10-15T12:59:08.376Z,102422.94
2023-10-15T13:01:35.230Z,102428.19
2023-10-15T13:04:01.785Z,102436.03
2023-10-15T13:06:28.386Z,102434.22
2023-10-15T13:08:56.924Z,102430.69
2023-10-15T13:11:23.992Z,102425.44
2023-10-15T13:13:50.622Z,102429.72
2023-10-15T13:16:19.439Z,102430.56
2023-10-15T13:18:46.152Z,102431.41
2023-10-15T13:21:12.650Z,102437.38
2023-10-15T13:23:39.226Z,102437.28
2023-10-15T13:26:09.530Z,102434.78
2023-10-15T13:28:36.286Z,102434.59
2023-10-15T13:31:03.455Z,102442.31
2023-10-15T13:33:29.969Z,102439.69
2023-10-15T13:35:56.528Z,102435.16
2023-10-15T13:38:23.066Z,102436.88
2023-10-15T13:40:49.953Z,102438.59
2023-10-15T13:43:16.745Z,102443.72
2023-10-15T13:45:43.399Z,102444.59
2023-10-15T13:48:14.495Z,102437.56
2023-10-15T13:50:43.657Z,102443.66
2023-10-15T13:53:11.770Z,102448.78
2023-10-15T13:55:38.235Z,102455.81
2023-10-15T13:58:05.218Z,102453.19
2023-10-15T14:00:32.898Z,102470.78
2023-10-15T14:03:00.405Z,102482.06
2023-10-15T14:05:28.853Z,102468.91
2023-10-15T14:07:55.817Z,102475.06
2023-10-15T14:10:22.583Z,102468.22
2023-10-15T14:12:51.766Z,102472.72
2023-10-15T14:15:21.394Z,102473.75
2023-10-15T14:17:47.969Z,102482.66
2023-10-15T14:20:18.165Z,102482.78
2023-10-15T14:22:45.814Z,102480.09
2023-10-15T14:25:13.732Z,102477.56
2023-10-15T14:27:41.484Z,102475.97
2023-10-15T14:30:11.545Z,102472.56
2023-10-15T14:32:38.617Z,102475.97
2023-10-15T14:35:07.342Z,102475.19
2023-10-15T14:37:35.243Z,102474.47
2023-10-15T14:40:01.796Z,102479.81
2023-10-15T14:42:28.332Z,102477.22
2023-10-15T14:44:55.292Z,102481.53
2023-10-15T14:47:22.097Z,102477.13
2023-10-15T14:49:48.743Z,102482.47
2023-10-15T14:52:15.162Z,102481.63
2023-10-15T14:54:41.725Z,102492.84
2023-10-15T14:57:16.821Z,102491.06
2023-10-15T14:59:43.262Z,102485.81
2023-10-15T15:02:11.563Z,102490.22
2023-10-15T15:04:38.082Z,102491.91
2023-10-15T15:07:04.643Z,102501.66
2023-10-15T15:09:31.152Z,102503.38
2023-10-15T15:11:57.591Z,102505.13
2023-10-15T15:14:24.191Z,102509.47
2023-10-15T15:16:51.092Z,102507.69
2023-10-15T15:19:17.748Z,102508.50
2023-10-15T15:21:45.828Z,102508.47
2023-10-15T15:24:16.717Z,102507.81
2023-10-15T15:26:43.879Z,102506.13
2023-10-15T15:29:11.653Z,102500.81
2023-10-15T15:31:38.203Z,102500.88
2023-10-15T15:34:04.805Z,102499.09
2023-10-15T15:36:31.238Z,102507.03
2023-10-15T15:38:57.958Z,102507.19
2023-10-15T15:41:26.974Z,102501.13
2023-10-15T15:43:53.641Z,102500.28
2023-10-15T15:46:20.079Z,102501.97
2023-10-15T15:48:47.887Z,102505.66
2023-10-15T15:51:14.727Z,102497.78
2023-10-15T15:53:43.945Z,102502.97
2023-10-15T15:56:12.116Z,102506.47
2023-10-15T15:58:38.973Z,102502.94
2023-10-15T16:01:05.762Z,102503.81
2023-10-15T16:03:49.950Z,102511.81
2023-10-15T16:06:17.931Z,102517.31
2023-10-15T16:08:44.904Z,102526.16
2023-10-15T16:11:12.002Z,102527.16
2023-10-15T16:13:40.016Z,102529.97
2023-10-15T16:16:06.997Z,102535.22
2023-10-15T16:18:33.440Z,102530.06
2023-10-15T16:20:59.803Z,102523.16
2023-10-15T16:23:26.720Z,102521.41
2023-10-15T16:25:53.638Z,102523.94
2023-10-15T16:28:20.384Z,102526.44
2023-10-15T16:30:50.966Z,102528.22
2023-10-15T16:33:18.350Z,102528.16
2023-10-15T16:35:45.171Z,102527.28
2023-10-15T16:38:15.152Z,102528.16
2023-10-15T16:40:41.963Z,102534.38
2023-10-15T16:43:14.296Z,102531.75
2023-10-15T16:45:43.368Z,102536.28
2023-10-15T16:48:12.356Z,102533.66
2023-10-15T16:50:44.497Z,102540.81
2023-10-15T16:53:13.773Z,102543.44
2023-10-15T16:55:41.635Z,102546.16
2023-10-15T16:58:08.601Z,102550.66
2023-10-15T17:00:35.294Z,102555.13
2023-10-15T17:03:04.824Z,102555.22
2023-10-15T17:05:31.834Z,102559.59
2023-10-15T17:07:58.495Z,102563.25
2023-10-15T17:10:24.878Z,102554.66
2023-10-15T17:12:52.318Z,102562.53
2023-10-15T17:15:19.063Z,102559.19
2023-10-15T17:17:45.879Z,102568.84
2023-10-15T17:20:13.058Z,102575.97
2023-10-15T17:22:41.754Z,102571.66
2023-10-15T17:25:08.958Z,102576.91
2023-10-15T17:27:35.423Z,102570.88
2023-10-15T17:30:17.910Z,102575.25
2023-10-15T17:32:45.575Z,102571.81
2023-10-15T17:35:12.853Z,102578.81
2023-10-15T17:37:40.308Z,102575.44
2023-10-15T17:40:07.792Z,102586.91
2023-10-15T17:42:37.105Z,102594.84
2023-10-15T17:45:04.324Z,102607.13
2023-10-15T17:47:30.811Z,102603.72
2023-10-15T17:49:57.339Z,102615.84
2023-10-15T17:52:23.722Z,102607.09
2023-10-15T17:54:50.125Z,102606.03
2023-10-15T17:57:17.603Z,102608.63
2023-10-15T17:59:44.227Z,102616.53
2023-10-15T18:02:10.678Z,102612.97
2023-10-15T18:04:37.634Z,102612.25
2023-10-15T18:07:04.128Z,102606.09
2023-10-15T18:12:01.136Z,102596.19
2023-10-15T18:14:27.599Z,102603.16
2023-10-15T18:16:54.102Z,102594.34
2023-10-15T18:19:20.573Z,102590.94
2023-10-15T18:21:47.204Z,102607.69
2023-10-15T18:24:13.881Z,102601.78
2023-10-15T18:26:43.996Z,102607.97
2023-10-15T18:29:12.394Z,102602.00
2023-10-15T18:31:39.286Z,102609.91
2023-10-15T18:34:05.769Z,102610.91
2023-10-15T18:36:33.974Z,102617.97
2023-10-15T18:39:00.623Z,102623.28
2023-10-15T18:41:27.239Z,102607.53
2023-10-15T18:43:54.671Z,102617.22
2023-10-15T18:46:21.127Z,102623.41
2023-10-15T18:48:47.676Z,102616.47
2023-10-15T18:51:36.528Z,102620.03
2023-10-15T18:54:04.548Z,102613.97
2023-10-15T18:56:33.378Z,102620.97
2023-10-15T18:59:01.857Z,102621.88
2023-10-15T19:01:28.435Z,102626.28
2023-10-15T19:03:55.107Z,102618.41
2023-10-15T19:06:21.684Z,102619.25
2023-10-15T19:08:49.439Z,102629.66
2023-10-15T19:11:15.948Z,102627.84
2023-10-15T19:13:43.145Z,102628.84
2023-10-15T19:16:10.735Z,102631.66
2023-10-15T19:18:38.607Z,102636.09
2023-10-15T19:21:05.190Z,102643.97
2023-10-15T19:23:31.816Z,102641.47
2023-10-15T19:26:08.671Z,102645.88
2023-10-15T19:28:37.406Z,102645.94
2023-10-15T19:31:05.105Z,102646.72
2023-10-15T19:33:33.125Z,102644.91
2023-10-15T19:36:00.977Z,102643.22
2023-10-15T19:38:28.245Z,102648.47
2023-10-15T19:40:54.868Z,102649.22
2023-10-15T19:43:22.475Z,102648.38
2023-10-15T19:45:49.525Z,102649.34
2023-10-15T19:48:16.555Z,102652.00
2023-10-15T19:50:43.917Z,102654.72
2023-10-15T19:53:10.499Z,102659.06
2023-10-15T19:55:37.001Z,102647.69
2023-10-15T19:58:03.738Z,102652.03
2023-10-15T20:00:32.097Z,102654.53
2023-10-15T20:02:58.772Z,102651.09
2023-10-15T20:05:25.377Z,102645.88
2023-10-15T20:07:53.220Z,102645.97
2023-10-15T20:10:19.985Z,102651.16
2023-10-15T20:12:49.099Z,102653.75
2023-10-15T20:15:16.569Z,102657.31
2023-10-15T20:17:44.101Z,102653.84
2023-10-15T20:20:12.396Z,102653.84
2023-10-15T20:22:41.620Z,102658.19
2023-10-15T20:25:09.122Z,102659.13
2023-10-15T20:27:43.392Z,102653.13
2023-10-15T20:30:13.746Z,102654.84
2023-10-15T20:35:16.455Z,102662.81
2023-10-15T20:37:43.303Z,102668.94
2023-10-15T20:40:16.919Z,102665.44
2023-10-15T20:42:45.475Z,102656.63
2023-10-15T20:45:16.033Z,102661.88
2023-10-15T20:47:47.869Z,102666.28
2023-10-15T20:50:16.206Z,102669.78
2023-10-15T20:52:44.456Z,102675.91
2023-10-15T20:55:12.319Z,102681.16
2023-10-15T20:57:40.654Z,102674.25
2023-10-15T21:00:13.321Z,102679.50
2023-10-15T21:02:42.782Z,102677.88
2023-10-15T21:05:10.651Z,102671.78
2023-10-15T21:07:38.068Z,102667.38
2023-10-15T21:10:06.382Z,102662.94
2023-10-15T21:12:33.196Z,102657.63
2023-10-15T21:15:00.007Z,102655.00
2023-10-15T21:17:26.537Z,102647.06
2023-10-15T21:19:55.989Z,102641.88
2023-10-15T21:22:23.824Z,102647.94
2023-10-15T21:24:50.458Z,102643.56
2023-10-15T21:27:17.033Z,102647.13
2023-10-15T21:29:44.217Z,102642.78
2023-10-15T21:32:10.608Z,102639.22
2023-10-15T21:34:37.042Z,102646.19
2023-10-15T21:37:03.571Z,102643.56
2023-10-15T21:39:30.125Z,102646.09
2023-10-15T21:41:56.584Z,102648.78
2023-10-15T21:44:24.362Z,102647.00
2023-10-15T21:46:51.260Z,102653.22
2023-10-15T21:49:17.688Z,102648.84
2023-10-15T21:51:44.161Z,102654.09
2023-10-15T21:54:10.992Z,102649.69
2023-10-15T21:56:39.623Z,102647.84
2023-10-15T21:59:06.446Z,102645.13
2023-10-15T22:01:33.511Z,102643.41
2023-10-15T22:04:00.122Z,102636.41
2023-10-15T22:06:26.705Z,102639.88
2023-10-15T22:08:53.228Z,102634.66
2023-10-15T22:11:20.816Z,102646.97
2023-10-15T22:13:59.842Z,102633.94
2023-10-15T22:16:27.710Z,102639.28
2023-10-15T22:18:54.264Z,102633.22
2023-10-15T22:21:20.708Z,102623.59
2023-10-15T22:23:48.748Z,102627.84
2023-10-15T22:26:18.961Z,102623.44
2023-10-15T22:28:46.987Z,102621.63
2023-10-15T22:31:16.242Z,102622.59
2023-10-15T22:33:44.353Z,102620.91
2023-10-15T22:36:13.773Z,102623.59
2023-10-15T22:38:41.292Z,102615.84
2023-10-15T22:41:07.854Z,102622.84
2023-10-15T22:43:34.874Z,102622.00
2023-10-15T22:46:05.993Z,102624.63
2023-10-15T22:48:32.878Z,102622.03
2023-10-15T22:50:59.482Z,102629.09
2023-10-15T22:53:27.313Z,102621.28
2023-10-15T22:55:54.045Z,102624.88
2023-10-15T22:58:21.218Z,102637.13
2023-10-15T23:00:51.245Z,102627.56
2023-10-15T23:03:18.319Z,102624.00
2023-10-15T23:05:44.925Z,102624.00
2023-10-15T23:08:13.894Z,102631.94
2023-10-15T23:10:43.702Z,102619.69
2023-10-15T23:13:10.775Z,102623.22
2023-10-15T23:15:41.726Z,102622.47
2023-10-15T23:18:10.210Z,102616.34
2023-10-15T23:20:42.184Z,102623.25
2023-10-15T23:23:19.017Z,102625.06
2023-10-15T23:25:46.035Z,102617.22
2023-10-15T23:28:12.413Z,102619.72
2023-10-15T23:30:45.343Z,102617.00
2023-10-15T23:33:12.347Z,102612.63
2023-10-15T23:35:39.633Z,102618.78
2023-10-15T23:38:08.487Z,102616.22
2023-10-15T23:40:36.115Z,102618.81
2023-10-15T23:43:05.977Z,102612.69
2023-10-15T23:45:33.173Z,102619.59
2023-10-15T23:48:12.484Z,102611.69
2023-10-15T23:50:45.460Z,102604.72
2023-10-15T23:53:42.659Z,102607.38
2023-10-15T23:56:12.978Z,102613.56
2023-10-15T23:58:42.760Z,102611.94
